Time;durP1;ratioP1;P1;durP2;ratioP2;P2;SDS_P1;SDS_P2;PMS_P1;PMS_P2;Temp;Humidity;BMP_temperature;BMP_pressure;BME280_temperature;BME280_humidity;BME280_pressure;Samples;Min_cycle;Max_cycle;Signal;HPM_P1;HPM_P2
2022/12/07 00:01:39;;;;;;;4.47;4.18;;;2.20;99.90;;;;;;5061013;28;20644;-74
2022/12/07 00:04:10;;;;;;;3.83;3.63;;;2.20;99.90;;;;;;5065073;28;20198;-73
2022/12/07 00:06:41;;;;;;;3.83;3.60;;;2.20;99.90;;;;;;5057971;28;20226;-73
2022/12/07 00:09:12;;;;;;;4.30;4.00;;;2.20;99.90;;;;;;5056078;28;20671;-74
2022/12/07 00:11:40;;;;;;;4.22;3.92;;;2.20;99.90;;;;;;5060117;28;20225;-73
2022/12/07 00:14:11;;;;;;;4.28;4.07;;;2.20;99.90;;;;;;5062661;28;20214;-75
2022/12/07 00:16:40;;;;;;;4.35;4.13;;;2.10;99.90;;;;;;5058650;28;20218;-75
2022/12/07 00:19:07;;;;;;;3.90;3.60;;;2.10;99.90;;;;;;5063155;28;20271;-73
2022/12/07 00:21:36;;;;;;;4.38;4.07;;;2.10;99.90;;;;;;5060786;28;20229;-73
2022/12/07 00:24:04;;;;;;;4.30;4.00;;;2.10;99.90;;;;;;5066240;28;20190;-79
2022/12/07 00:26:33;;;;;;;4.35;4.03;;;2.10;99.90;;;;;;5062664;28;20232;-74
2022/12/07 00:29:03;;;;;;;4.25;3.95;;;2.00;99.90;;;;;;5061740;28;20217;-72
2022/12/07 00:31:35;;;;;;;4.10;3.90;;;2.00;99.90;;;;;;5067356;28;20217;-74
2022/12/07 00:34:04;;;;;;;4.03;3.78;;;2.00;99.90;;;;;;5064324;28;20217;-77
2022/12/07 00:36:31;;;;;;;4.10;3.83;;;2.00;99.90;;;;;;5059734;28;20218;-76
2022/12/07 00:39:00;;;;;;;3.95;3.65;;;2.00;99.90;;;;;;5068710;28;20221;-76
2022/12/07 00:41:30;;;;;;;4.65;4.30;;;1.90;99.90;;;;;;5060898;28;20225;-73
2022/12/07 00:43:58;;;;;;;4.35;4.05;;;2.00;99.90;;;;;;5063465;28;20194;-75
2022/12/07 00:46:26;;;;;;;3.53;3.30;;;2.00;99.90;;;;;;5057916;28;20227;-74
2022/12/07 00:48:54;;;;;;;4.10;3.85;;;2.00;99.90;;;;;;5062478;28;20714;-76
2022/12/07 00:51:25;;;;;;;3.90;3.70;;;2.00;99.90;;;;;;5064005;28;20230;-76
2022/12/07 00:53:53;;;;;;;3.90;3.60;;;1.90;99.90;;;;;;5063303;28;20218;-76
2022/12/07 00:56:22;;;;;;;4.15;3.85;;;2.00;99.90;;;;;;5067547;28;20233;-75
2022/12/07 00:58:54;;;;;;;3.65;3.45;;;1.90;99.90;;;;;;5071138;28;20218;-75
2022/12/07 01:01:21;;;;;;;3.85;3.65;;;2.00;99.90;;;;;;5068115;28;20699;-74
2022/12/07 01:03:49;;;;;;;4.15;3.78;;;2.00;99.90;;;;;;5067762;28;20198;-78
2022/12/07 01:06:18;;;;;;;3.90;3.70;;;2.00;99.90;;;;;;5071915;28;20226;-72
2022/12/07 01:08:47;;;;;;;3.67;3.47;;;2.00;99.90;;;;;;5069958;28;20217;-74
2022/12/07 01:11:16;;;;;;;4.47;4.00;;;2.00;99.90;;;;;;5069145;28;20645;-76
2022/12/07 01:13:45;;;;;;;4.20;4.00;;;1.90;99.90;;;;;;5069432;28;20223;-75
2022/12/07 01:16:14;;;;;;;4.22;3.92;;;1.90;99.90;;;;;;5065572;28;20245;-74
2022/12/07 01:18:42;;;;;;;3.83;3.63;;;1.90;99.90;;;;;;5067890;28;20234;-78
2022/12/07 01:21:12;;;;;;;4.40;4.10;;;1.90;99.90;;;;;;5062497;28;20221;-74
2022/12/07 01:23:40;;;;;;;4.20;3.90;;;1.90;99.90;;;;;;5073208;28;20542;-78
2022/12/07 01:26:11;;;;;;;4.32;4.03;;;1.90;99.90;;;;;;5066736;28;20218;-78
2022/12/07 01:28:39;;;;;;;3.95;3.75;;;1.90;99.90;;;;;;5069227;28;20226;-78
2022/12/07 01:31:09;;;;;;;4.40;4.10;;;1.80;99.90;;;;;;5073295;28;20218;-77
2022/12/07 01:33:38;;;;;;;3.67;3.47;;;1.80;99.90;;;;;;5067770;28;20630;-76
2022/12/07 01:36:08;;;;;;;4.20;3.97;;;1.90;99.90;;;;;;5070549;28;20233;-76
2022/12/07 01:38:36;;;;;;;4.18;3.92;;;1.80;99.90;;;;;;5064457;28;20230;-75
2022/12/07 01:41:04;;;;;;;4.30;4.10;;;1.80;99.90;;;;;;5069527;28;20263;-78
2022/12/07 01:43:34;;;;;;;4.30;4.00;;;1.80;99.90;;;;;;5061847;28;20568;-75
2022/12/07 01:46:03;;;;;;;4.20;4.00;;;1.80;99.90;;;;;;5065461;28;20601;-80
2022/12/07 01:48:34;;;;;;;4.15;3.90;;;1.80;99.90;;;;;;5067192;28;20305;-78
2022/12/07 01:51:06;;;;;;;4.13;3.83;;;1.80;99.90;;;;;;5067154;28;20559;-77
2022/12/07 01:53:35;;;;;;;3.97;3.78;;;1.80;99.90;;;;;;5063256;28;20221;-75
2022/12/07 01:56:03;;;;;;;4.78;4.47;;;1.80;99.90;;;;;;5068045;28;20226;-75
2022/12/07 01:58:31;;;;;;;4.30;4.00;;;1.80;99.90;;;;;;5069900;28;20214;-75
2022/12/07 02:01:00;;;;;;;4.30;4.05;;;1.80;99.90;;;;;;5065600;28;20225;-78
2022/12/07 02:03:32;;;;;;;4.10;3.90;;;1.70;99.90;;;;;;5063747;28;20198;-75
2022/12/07 02:06:01;;;;;;;3.85;3.65;;;1.70;99.90;;;;;;5063270;28;20226;-76
2022/12/07 02:08:29;;;;;;;3.97;3.75;;;1.70;99.90;;;;;;5063643;28;20221;-75
2022/12/07 02:10:56;;;;;;;4.40;4.10;;;1.70;99.90;;;;;;5067783;28;20745;-75
2022/12/07 02:13:27;;;;;;;3.90;3.70;;;1.70;99.90;;;;;;5068586;28;20578;-74
2022/12/07 02:16:29;;;;;;;3.90;3.70;;;1.70;99.90;;;;;;5063836;28;20198;-74
2022/12/07 02:19:29;;;;;;;3.90;3.70;;;1.60;99.90;;;;;;5067629;28;20209;-74
2022/12/07 02:22:02;;;;;;;3.92;3.60;;;1.60;99.90;;;;;;5061390;28;20224;-77
2022/12/07 02:24:50;;;;;;;3.65;3.45;;;1.60;99.90;;;;;;5067859;28;20198;-74
2022/12/07 02:27:41;;;;;;;3.50;3.30;;;1.60;99.90;;;;;;5066474;28;20226;-74
2022/12/07 02:30:13;;;;;;;4.03;3.83;;;1.60;99.90;;;;;;5062655;28;20204;-74
2022/12/07 02:32:50;;;;;;;4.30;3.95;;;1.60;99.90;;;;;;5058727;28;20221;-74
2022/12/07 02:35:21;;;;;;;4.20;3.90;;;1.60;99.90;;;;;;5061822;28;20214;-73
2022/12/07 02:37:59;;;;;;;4.13;3.83;;;1.50;99.90;;;;;;5065348;28;20226;-74
2022/12/07 02:40:32;;;;;;;3.47;3.28;;;1.50;99.90;;;;;;5067689;28;20196;-73
2022/12/07 02:43:06;;;;;;;4.20;3.90;;;1.50;99.90;;;;;;5067410;28;20308;-75
2022/12/07 02:45:38;;;;;;;3.92;3.72;;;1.50;99.90;;;;;;5064610;28;20205;-73
2022/12/07 02:48:08;;;;;;;4.00;3.70;;;1.50;99.90;;;;;;5067026;28;20222;-73
2022/12/07 02:50:35;;;;;;;4.00;3.78;;;1.50;99.90;;;;;;5066837;28;20202;-74
2022/12/07 02:53:02;;;;;;;3.63;3.42;;;1.50;99.90;;;;;;5068470;28;20537;-74
2022/12/07 02:55:38;;;;;;;3.70;3.50;;;1.50;99.90;;;;;;5065455;28;20218;-73
2022/12/07 02:58:27;;;;;;;3.88;3.67;;;1.50;99.90;;;;;;5068593;28;20232;-74
2022/12/07 03:01:07;;;;;;;3.60;3.35;;;1.50;99.90;;;;;;5068171;28;20199;-74
2022/12/07 03:03:38;;;;;;;4.00;3.80;;;1.50;99.90;;;;;;5059794;28;20198;-74
2022/12/07 03:06:15;;;;;;;3.90;3.70;;;1.50;99.90;;;;;;5058556;28;20226;-75
2022/12/07 03:08:54;;;;;;;4.25;3.95;;;1.40;99.90;;;;;;5066681;28;20240;-74
2022/12/07 03:11:26;;;;;;;3.58;3.38;;;1.40;99.90;;;;;;5064761;28;20225;-75
2022/12/07 03:14:03;;;;;;;4.03;3.72;;;1.30;99.90;;;;;;5067366;28;20217;-73
2022/12/07 03:16:38;;;;;;;3.80;3.60;;;1.30;99.90;;;;;;5068862;28;20268;-74
2022/12/07 03:19:09;;;;;;;4.25;4.05;;;1.30;99.90;;;;;;5069337;28;20233;-73
2022/12/07 03:21:40;;;;;;;3.97;3.78;;;1.30;99.90;;;;;;5071301;28;20225;-74
2022/12/07 03:24:13;;;;;;;3.88;3.67;;;1.30;99.90;;;;;;5064703;28;20212;-73
2022/12/07 03:26:43;;;;;;;3.28;3.08;;;1.30;99.90;;;;;;5069336;28;20210;-73
2022/12/07 03:29:15;;;;;;;3.85;3.65;;;1.30;99.90;;;;;;5072035;28;20298;-74
2022/12/07 03:31:49;;;;;;;3.85;3.65;;;1.30;99.90;;;;;;5065570;28;20218;-74
2022/12/07 03:34:20;;;;;;;3.90;3.70;;;1.30;99.90;;;;;;5064014;28;20234;-74
2022/12/07 03:36:52;;;;;;;3.70;3.50;;;1.30;99.90;;;;;;5066732;28;20253;-73
2022/12/07 03:39:24;;;;;;;3.55;3.35;;;1.30;99.90;;;;;;5067437;28;20201;-73
2022/12/07 03:41:53;;;;;;;4.05;3.85;;;1.30;99.90;;;;;;5068274;28;20295;-74
2022/12/07 03:44:21;;;;;;;4.10;3.80;;;1.30;99.90;;;;;;5069023;28;20198;-74
2022/12/07 03:47:00;;;;;;;3.90;3.70;;;1.30;99.90;;;;;;5068064;28;20639;-74
2022/12/07 03:49:31;;;;;;;3.88;3.58;;;1.30;99.90;;;;;;5067540;28;20959;-74
2022/12/07 03:52:10;;;;;;;4.00;3.70;;;1.30;99.90;;;;;;5073837;28;20225;-75
2022/12/07 03:54:44;;;;;;;3.92;3.63;;;1.40;99.90;;;;;;5066858;28;20214;-74
2022/12/07 03:57:13;;;;;;;4.18;3.92;;;1.40;99.90;;;;;;5062331;28;20221;-75
2022/12/07 03:59:41;;;;;;;4.47;4.18;;;1.40;99.90;;;;;;5070819;28;20194;-75
2022/12/07 04:02:14;;;;;;;3.80;3.60;;;1.30;99.90;;;;;;5068798;28;20222;-75
2022/12/07 04:04:42;;;;;;;3.63;3.42;;;1.30;99.90;;;;;;5061917;28;20194;-74
2022/12/07 04:07:10;;;;;;;3.85;3.65;;;1.30;99.90;;;;;;5064206;28;20224;-74
2022/12/07 04:09:38;;;;;;;4.05;3.85;;;1.30;99.90;;;;;;5065465;28;20194;-73
2022/12/07 04:12:06;;;;;;;3.90;3.60;;;1.20;99.90;;;;;;5065794;28;20225;-73
2022/12/07 04:14:33;;;;;;;3.80;3.50;;;1.20;99.90;;;;;;5061631;28;20973;-73
2022/12/07 04:17:00;;;;;;;4.25;3.95;;;1.20;99.90;;;;;;5064012;28;20725;-74
2022/12/07 04:19:32;;;;;;;3.92;3.72;;;1.20;99.90;;;;;;5070312;28;20195;-73
2022/12/07 04:22:01;;;;;;;4.32;4.03;;;1.20;99.90;;;;;;5068449;28;20710;-73
2022/12/07 04:24:29;;;;;;;3.58;3.38;;;1.20;99.90;;;;;;5064947;28;20193;-73
2022/12/07 04:26:56;;;;;;;3.88;3.63;;;1.20;99.90;;;;;;5066319;28;20215;-73
2022/12/07 04:29:24;;;;;;;3.95;3.65;;;1.10;99.90;;;;;;5069965;28;20206;-73
2022/12/07 04:31:52;;;;;;;3.55;3.35;;;1.10;99.90;;;;;;5064244;28;20215;-73
2022/12/07 04:34:22;;;;;;;4.05;3.78;;;1.10;99.90;;;;;;5068820;28;20234;-73
2022/12/07 04:36:50;;;;;;;4.03;3.83;;;1.10;99.90;;;;;;5069586;28;20223;-73
2022/12/07 04:39:22;;;;;;;3.90;3.70;;;1.10;99.90;;;;;;5066647;28;20206;-72
2022/12/07 04:41:50;;;;;;;3.85;3.65;;;1.10;99.90;;;;;;5060258;28;20780;-73
2022/12/07 04:44:19;;;;;;;3.65;3.45;;;1.10;99.90;;;;;;5070281;28;20199;-72
2022/12/07 04:46:46;;;;;;;4.18;3.88;;;1.10;99.90;;;;;;5066666;28;20214;-75
2022/12/07 04:49:15;;;;;;;3.80;3.50;;;1.10;99.90;;;;;;5063480;28;20237;-73
2022/12/07 04:51:42;;;;;;;3.70;3.50;;;1.10;99.90;;;;;;5064261;28;20218;-72
2022/12/07 04:54:11;;;;;;;3.85;3.65;;;1.20;99.90;;;;;;5067261;28;20219;-73
2022/12/07 04:56:39;;;;;;;4.45;4.15;;;1.20;99.90;;;;;;5065616;28;20218;-72
2022/12/07 04:59:07;;;;;;;4.15;3.75;;;1.20;99.90;;;;;;5065952;28;20214;-73
2022/12/07 05:01:35;;;;;;;3.80;3.60;;;1.10;99.90;;;;;;5068072;28;20222;-73
2022/12/07 05:04:02;;;;;;;4.13;3.92;;;1.10;99.90;;;;;;5068213;28;20201;-73
2022/12/07 05:06:29;;;;;;;4.35;4.10;;;1.10;99.90;;;;;;5064992;28;20271;-72
2022/12/07 05:08:56;;;;;;;4.32;4.03;;;1.10;99.90;;;;;;5060181;28;20826;-73
2022/12/07 05:11:41;;;;;;;4.15;3.95;;;1.10;99.90;;;;;;5071760;28;20230;-73
2022/12/07 05:14:11;;;;;;;3.78;3.58;;;1.10;99.90;;;;;;5065383;28;20198;-73
2022/12/07 05:16:38;;;;;;;4.03;3.83;;;1.00;99.90;;;;;;5068240;28;20214;-73
2022/12/07 05:19:06;;;;;;;4.15;3.95;;;1.00;99.90;;;;;;5066634;28;20766;-73
2022/12/07 05:21:33;;;;;;;3.88;3.67;;;1.00;99.90;;;;;;5066294;28;20222;-73
2022/12/07 05:24:01;;;;;;;4.20;3.90;;;1.00;99.90;;;;;;5070231;28;20206;-72
2022/12/07 05:26:30;;;;;;;3.97;3.67;;;1.00;99.90;;;;;;5068624;28;20229;-72
2022/12/07 05:28:59;;;;;;;4.47;4.18;;;1.00;99.90;;;;;;5071156;28;20214;-72
2022/12/07 05:31:28;;;;;;;4.30;4.00;;;1.00;99.90;;;;;;5064077;28;20595;-73
2022/12/07 05:33:55;;;;;;;5.47;5.07;;;1.10;99.90;;;;;;5069577;28;20213;-73
2022/12/07 05:36:23;;;;;;;5.88;5.45;;;1.10;99.90;;;;;;5063561;28;20227;-73
2022/12/07 05:38:50;;;;;;;7.32;6.72;;;1.00;99.90;;;;;;5062413;28;20215;-73
2022/12/07 05:44:06;;;;;;;7.80;7.20;;;1.00;99.90;;;;;;5066858;28;20213;-72
2022/12/07 05:46:34;;;;;;;7.45;6.85;;;1.00;99.90;;;;;;5069550;28;20226;-72
2022/12/07 05:49:01;;;;;;;6.13;5.72;;;1.00;99.90;;;;;;5066342;28;20309;-73
2022/12/07 05:51:29;;;;;;;5.90;5.50;;;1.00;99.90;;;;;;5068559;28;20222;-73
2022/12/07 05:53:56;;;;;;;5.72;5.32;;;1.00;99.90;;;;;;5080140;28;20711;-73
2022/12/07 05:56:24;;;;;;;5.22;4.93;;;1.00;99.90;;;;;;5067812;28;20217;-73
2022/12/07 06:01:37;;;;;;;5.10;4.78;;;1.00;99.90;;;;;;5066105;28;20237;-73
2022/12/07 06:04:04;;;;;;;4.70;4.40;;;1.00;99.90;;;;;;5064506;28;20206;-73
2022/12/07 06:06:32;;;;;;;5.60;5.10;;;1.00;99.90;;;;;;5067191;28;20710;-72
2022/12/07 06:08:59;;;;;;;5.88;5.47;;;1.00;99.90;;;;;;5064219;28;20222;-73
2022/12/07 06:14:11;;;;;;;5.95;5.55;;;0.90;99.90;;;;;;5076689;28;20273;-74
2022/12/07 06:16:40;;;;;;;5.85;5.45;;;0.90;99.90;;;;;;5063820;28;20217;-73
2022/12/07 06:19:08;;;;;;;5.10;4.80;;;0.90;99.90;;;;;;5065688;28;20210;-73
2022/12/07 06:21:35;;;;;;;5.40;5.10;;;0.90;99.90;;;;;;5067391;28;20214;-73
2022/12/07 06:24:03;;;;;;;5.07;4.75;;;0.90;99.90;;;;;;5061921;28;20194;-73
2022/12/07 06:26:30;;;;;;;5.10;4.70;;;0.90;99.90;;;;;;5064091;28;20241;-73
2022/12/07 06:28:58;;;;;;;4.53;4.22;;;0.90;99.90;;;;;;5064765;28;20214;-73
2022/12/07 06:31:25;;;;;;;4.80;4.50;;;0.90;99.90;;;;;;5068011;28;20214;-73
2022/12/07 06:33:59;;;;;;;4.28;4.03;;;0.90;99.90;;;;;;5060234;28;20204;-73
2022/12/07 06:36:26;;;;;;;5.63;5.22;;;0.90;99.90;;;;;;5065248;28;20226;-73
2022/12/07 06:38:53;;;;;;;5.40;5.03;;;0.90;99.90;;;;;;5059131;28;20237;-72
2022/12/07 06:41:21;;;;;;;5.43;5.03;;;1.00;99.90;;;;;;5068007;28;20222;-73
2022/12/07 06:43:49;;;;;;;4.85;4.45;;;1.00;99.90;;;;;;5066245;28;20206;-73
2022/12/07 06:46:17;;;;;;;4.60;4.30;;;1.00;99.90;;;;;;5056852;28;20223;-74
2022/12/07 06:48:45;;;;;;;4.32;4.03;;;1.00;99.90;;;;;;5062105;28;20218;-75
2022/12/07 06:51:14;;;;;;;4.60;4.30;;;1.00;99.90;;;;;;5065531;28;20245;-73
2022/12/07 06:53:41;;;;;;;4.15;3.85;;;1.00;99.90;;;;;;5069957;28;20198;-73
2022/12/07 06:56:08;;;;;;;4.55;4.25;;;1.00;99.90;;;;;;5068682;28;20215;-73
2022/12/07 06:58:35;;;;;;;3.92;3.72;;;1.00;99.90;;;;;;5065437;28;20229;-73
2022/12/07 07:01:03;;;;;;;4.32;4.03;;;1.10;99.90;;;;;;5063350;28;20245;-73
2022/12/07 07:03:30;;;;;;;3.97;3.78;;;1.10;99.90;;;;;;5065509;28;20209;-73
2022/12/07 07:05:57;;;;;;;4.05;3.85;;;1.20;99.90;;;;;;5062270;28;20222;-72
2022/12/07 07:08:26;;;;;;;4.60;4.20;;;1.20;99.90;;;;;;5061239;28;20230;-73
2022/12/07 07:10:54;;;;;;;4.47;4.18;;;1.20;99.90;;;;;;5067966;28;20198;-74
2022/12/07 07:13:22;;;;;;;4.63;4.32;;;1.30;99.90;;;;;;5062244;28;20194;-73
2022/12/07 07:15:49;;;;;;;5.78;5.38;;;1.30;99.90;;;;;;5065662;28;20237;-73
2022/12/07 07:18:17;;;;;;;5.55;5.15;;;1.30;99.90;;;;;;5068201;28;20690;-73
2022/12/07 07:20:44;;;;;;;6.15;5.65;;;1.30;99.90;;;;;;5069520;28;20198;-73
2022/12/07 07:23:12;;;;;;;6.07;5.68;;;1.40;99.90;;;;;;5075973;28;20249;-73
2022/12/07 07:25:41;;;;;;;5.43;5.03;;;1.30;99.90;;;;;;5055914;28;20252;-72
2022/12/07 07:28:08;;;;;;;5.47;5.07;;;1.40;99.90;;;;;;5063017;28;20225;-73
2022/12/07 07:30:35;;;;;;;5.55;5.15;;;1.40;99.90;;;;;;5060609;28;20346;-73
2022/12/07 07:33:04;;;;;;;4.85;4.50;;;1.40;99.90;;;;;;5062020;28;20194;-72
2022/12/07 07:35:33;;;;;;;4.60;4.30;;;1.50;99.90;;;;;;5061712;28;20222;-73
2022/12/07 07:38:01;;;;;;;4.30;4.03;;;1.50;99.90;;;;;;5055454;28;20230;-72
2022/12/07 07:40:30;;;;;;;4.25;4.03;;;1.50;99.90;;;;;;5059535;28;20670;-72
2022/12/07 07:42:59;;;;;;;4.55;4.28;;;1.60;99.90;;;;;;5063464;28;20256;-71
2022/12/07 07:45:28;;;;;;;4.25;3.95;;;1.60;99.90;;;;;;5057844;28;20190;-72
2022/12/07 07:47:56;;;;;;;4.47;4.18;;;1.60;99.90;;;;;;5059889;28;20810;-72
2022/12/07 07:50:24;;;;;;;4.63;4.30;;;1.60;99.90;;;;;;5062700;28;20198;-72
2022/12/07 07:52:52;;;;;;;4.18;3.88;;;1.70;99.90;;;;;;5062098;28;20599;-72
2022/12/07 07:55:20;;;;;;;4.80;4.50;;;1.70;99.90;;;;;;5061956;28;20743;-72
2022/12/07 07:57:47;;;;;;;4.75;4.45;;;1.70;99.90;;;;;;5060490;28;20248;-71
2022/12/07 08:00:18;;;;;;;5.32;4.90;;;1.70;99.90;;;;;;5058072;28;20194;-72
2022/12/07 08:02:45;;;;;;;5.40;4.70;;;1.70;99.90;;;;;;5056394;28;20218;-72
2022/12/07 08:05:14;;;;;;;4.15;3.95;;;1.80;99.90;;;;;;5065160;28;20205;-72
2022/12/07 08:07:41;;;;;;;4.75;4.35;;;1.80;99.90;;;;;;5073117;22;20708;-82
2022/12/07 08:10:12;;;;;;;4.50;4.07;;;1.90;99.90;;;;;;5078155;28;20209;-76
2022/12/07 08:13:10;;;;;;;4.93;4.50;;;2.30;99.90;;;;;;5077439;28;20224;-79
2022/12/07 08:15:31;;;;;;;5.07;4.68;;;2.90;99.90;;;;;;5070146;28;20213;-82
2022/12/07 08:17:58;;;;;;;5.15;4.75;;;3.10;99.90;;;;;;5054997;28;20221;-79
2022/12/07 08:20:25;;;;;;;4.65;4.25;;;3.30;99.90;;;;;;5061481;28;20202;-80
2022/12/07 08:22:52;;;;;;;4.65;4.32;;;3.90;99.90;;;;;;5054824;28;20218;-79
2022/12/07 08:25:19;;;;;;;4.47;4.18;;;4.30;99.90;;;;;;5054120;28;20899;-78
2022/12/07 08:27:46;;;;;;;5.55;5.10;;;5.10;99.90;;;;;;5047738;28;20229;-79
2022/12/07 08:30:14;;;;;;;5.47;5.07;;;5.90;99.90;;;;;;5050600;28;20202;-79
2022/12/07 08:32:43;;;;;;;6.55;5.80;;;6.60;99.90;;;;;;5051044;28;20246;-80
2022/12/07 08:35:10;;;;;;;5.38;4.97;;;7.20;99.90;;;;;;5046037;28;20668;-77
2022/12/07 08:37:37;;;;;;;5.82;5.32;;;7.50;99.90;;;;;;5047361;28;20227;-81
2022/12/07 08:40:06;;;;;;;5.82;4.97;;;7.70;99.90;;;;;;5048038;28;20198;-77
2022/12/07 08:42:39;;;;;;;7.32;5.00;;;8.00;99.90;;;;;;5044952;28;20670;-77
2022/12/07 08:45:08;;;;;;;5.50;5.00;;;8.20;99.90;;;;;;5048293;28;20201;-76
2022/12/07 08:47:36;;;;;;;4.93;4.50;;;8.60;99.90;;;;;;5053419;28;20264;-76
2022/12/07 08:50:07;;;;;;;4.50;4.20;;;9.20;99.90;;;;;;5044940;28;20207;-77
2022/12/07 08:52:35;;;;;;;4.25;3.95;;;9.90;99.90;;;;;;5055019;28;20277;-75
2022/12/07 08:55:04;;;;;;;4.68;4.28;;;10.40;99.90;;;;;;5047639;28;20202;-81
2022/12/07 08:57:33;;;;;;;5.18;4.68;;;10.60;99.90;;;;;;5052646;28;20412;-78
2022/12/07 09:00:00;;;;;;;5.95;5.22;;;10.70;99.90;;;;;;5049325;28;20220;-75
2022/12/07 09:02:27;;;;;;;5.38;4.88;;;10.90;99.90;;;;;;5052407;28;20222;-75
2022/12/07 09:04:54;;;;;;;5.50;5.00;;;11.50;99.90;;;;;;5046190;28;20199;-79
2022/12/07 09:07:23;;;;;;;4.70;4.30;;;12.20;99.90;;;;;;5042792;28;20258;-77
2022/12/07 09:09:50;;;;;;;3.92;3.63;;;13.40;99.90;;;;;;5056450;28;20198;-79
2022/12/07 09:12:17;;;;;;;4.63;4.05;;;14.90;99.90;;;;;;5055550;28;20223;-75
2022/12/07 09:14:44;;;;;;;4.20;3.90;;;16.00;99.90;;;;;;5052339;28;20205;-82
2022/12/07 09:17:12;;;;;;;4.85;3.83;;;17.00;99.90;;;;;;5041095;28;20230;-77
2022/12/07 09:19:41;;;;;;;3.75;3.45;;;17.80;99.90;;;;;;5048529;28;20195;-77
2022/12/07 09:22:08;;;;;;;4.30;3.90;;;18.60;99.90;;;;;;5045220;28;20226;-77
2022/12/07 09:24:36;;;;;;;4.20;3.80;;;19.10;99.90;;;;;;5049846;28;20230;-82
2022/12/07 09:27:04;;;;;;;4.10;3.80;;;19.50;99.90;;;;;;5039100;28;20230;-78
2022/12/07 09:29:31;;;;;;;4.45;4.05;;;19.80;97.70;;;;;;5052972;28;20286;-84
2022/12/07 09:31:58;;;;;;;4.13;3.67;;;19.90;96.40;;;;;;5050380;28;20909;-81
2022/12/07 09:34:26;;;;;;;3.78;3.42;;;19.90;94.80;;;;;;5045679;28;20272;-85
2022/12/07 09:36:53;;;;;;;3.20;2.90;;;20.20;92.50;;;;;;5042297;28;20285;-81
2022/12/07 09:39:20;;;;;;;5.07;3.03;;;20.00;92.50;;;;;;5050221;28;20198;-82
2022/12/07 09:41:49;;;;;;;5.10;3.47;;;19.80;91.60;;;;;;5054244;28;20272;-83
2022/12/07 09:44:25;;;;;;;4.00;3.30;;;19.60;91.40;;;;;;5047875;28;20191;-83
2022/12/07 09:46:53;;;;;;;3.75;2.90;;;19.50;91.70;;;;;;5044227;28;20234;-81
2022/12/07 09:49:23;;;;;;;3.85;3.55;;;19.20;92.00;;;;;;5048126;28;20226;-83
2022/12/07 09:52:02;;;;;;;4.63;3.45;;;18.50;92.60;;;;;;5053195;28;20210;-80
2022/12/07 09:54:31;;;;;;;4.45;3.45;;;16.90;95.00;;;;;;5048384;28;20201;-81
2022/12/07 09:57:00;;;;;;;5.72;3.55;;;15.50;96.70;;;;;;5044091;28;20558;-81
2022/12/07 09:59:27;;;;;;;3.35;3.10;;;14.30;99.90;;;;;;5050863;28;20268;-82
2022/12/07 10:01:54;;;;;;;3.78;3.47;;;13.40;99.90;;;;;;5048477;28;20246;-83
2022/12/07 10:04:25;;;;;;;3.58;3.30;;;12.50;99.90;;;;;;5051483;28;20202;-85
2022/12/07 10:06:52;;;;;;;3.92;3.50;;;12.00;99.90;;;;;;5041389;28;20226;-84
2022/12/07 10:09:21;;;;;;;3.53;3.22;;;11.50;99.90;;;;;;5048333;28;20213;-85
2022/12/07 10:12:09;;;;;;;5.30;3.75;;;11.30;99.90;;;;;;5049400;28;20230;-82
2022/12/07 10:14:39;;;;;;;4.30;3.22;;;11.10;99.90;;;;;;5045142;28;20225;-82
2022/12/07 10:17:31;;;;;;;4.28;3.88;;;10.70;99.90;;;;;;5046681;28;20379;-86
2022/12/07 10:20:17;;;;;;;4.53;3.80;;;10.70;99.90;;;;;;5044794;28;20195;-83
2022/12/07 10:23:02;;;;;;;4.63;4.22;;;10.80;99.90;;;;;;5055589;28;20227;-84
2022/12/07 10:25:32;;;;;;;4.53;4.13;;;10.90;99.90;;;;;;5042293;28;20210;-79
2022/12/07 10:28:14;;;;;;;4.80;3.63;;;10.90;99.90;;;;;;5040102;28;20736;-81
2022/12/07 10:30:53;;;;;;;4.30;3.90;;;10.70;99.90;;;;;;5047050;28;20294;-81
2022/12/07 10:33:36;;;;;;;4.57;3.95;;;10.90;99.90;;;;;;5048125;28;20221;-83
2022/12/07 10:36:18;;;;;;;4.10;3.70;;;11.10;99.90;;;;;;5044020;28;20220;-80
2022/12/07 10:38:48;;;;;;;4.00;3.70;;;11.10;99.90;;;;;;5045406;28;20202;-84
2022/12/07 10:41:16;;;;;;;4.35;4.05;;;11.10;99.90;;;;;;5049620;28;20589;-81
2022/12/07 10:43:55;;;;;;;4.65;4.25;;;11.00;99.90;;;;;;5049600;28;20202;-83
2022/12/07 10:46:38;;;;;;;4.70;4.15;;;11.00;99.90;;;;;;5051014;28;20218;-84
2022/12/07 10:49:19;;;;;;;6.38;4.07;;;11.20;99.90;;;;;;5044721;28;20741;-79
2022/12/07 10:51:53;;;;;;;5.28;4.78;;;11.20;99.90;;;;;;5055647;28;20214;-80
2022/12/07 10:54:31;;;;;;;5.03;4.45;;;11.10;99.90;;;;;;5039469;28;20193;-85
2022/12/07 10:57:21;;;;;;;5.65;4.55;;;11.30;99.90;;;;;;5049219;28;20218;-77
2022/12/07 11:00:06;;;;;;;4.90;4.05;;;11.20;99.90;;;;;;5045805;28;20218;-82
2022/12/07 11:03:07;;;;;;;7.55;4.85;;;11.30;99.90;;;;;;5036866;28;20230;-82
2022/12/07 11:05:44;;;;;;;4.30;3.90;;;11.30;99.90;;;;;;5010692;28;20203;-85
2022/12/07 11:08:22;;;;;;;5.38;4.07;;;11.50;99.90;;;;;;5048555;28;20233;-85
2022/12/07 11:10:56;;;;;;;3.97;3.50;;;11.50;99.90;;;;;;5049110;28;20231;-77
2022/12/07 11:13:36;;;;;;;5.57;3.83;;;11.30;99.90;;;;;;5048465;28;20641;-78
2022/12/07 11:16:20;;;;;;;4.00;3.70;;;11.40;99.90;;;;;;5042733;28;20275;-81
2022/12/07 11:19:00;;;;;;;4.40;4.10;;;11.40;99.90;;;;;;5045989;28;20282;-79
2022/12/07 11:21:37;;;;;;;4.13;3.83;;;11.30;99.90;;;;;;5034959;28;20213;-80
2022/12/07 11:24:11;;;;;;;5.32;3.72;;;11.30;99.90;;;;;;5043884;28;20281;-82
2022/12/07 11:26:57;;;;;;;4.30;3.90;;;11.40;99.90;;;;;;5041204;28;20214;-81
2022/12/07 11:29:37;;;;;;;6.53;4.20;;;11.60;99.90;;;;;;5046212;28;20576;-77
2022/12/07 11:32:19;;;;;;;5.13;3.88;;;11.80;99.90;;;;;;5044248;28;20217;-76
2022/12/07 11:34:56;;;;;;;3.95;3.65;;;11.80;99.90;;;;;;5041697;28;20697;-75
2022/12/07 11:37:31;;;;;;;4.32;3.50;;;11.70;99.90;;;;;;5049886;28;20853;-80
2022/12/07 11:40:02;;;;;;;5.20;4.13;;;11.60;99.90;;;;;;5048808;28;21043;-80
2022/12/07 11:42:37;;;;;;;4.20;3.88;;;11.40;99.90;;;;;;5040319;28;20276;-77
2022/12/07 11:45:16;;;;;;;5.30;4.35;;;11.20;99.90;;;;;;5039616;28;20614;-76
2022/12/07 11:47:48;;;;;;;3.95;3.63;;;10.90;99.90;;;;;;5045971;28;20226;-77
2022/12/07 11:50:27;;;;;;;4.03;3.63;;;10.80;99.90;;;;;;5043706;28;20198;-79
2022/12/07 11:52:59;;;;;;;4.68;4.20;;;10.80;99.90;;;;;;5047586;28;20218;-77
2022/12/07 11:55:33;;;;;;;4.65;4.10;;;10.80;99.90;;;;;;5043040;28;20199;-76
2022/12/07 11:58:06;;;;;;;7.22;4.00;;;11.00;99.90;;;;;;5019819;28;20312;-78
2022/12/07 12:00:35;;;;;;;3.90;3.50;;;11.20;99.90;;;;;;5027347;28;20287;-86
2022/12/07 12:03:15;;;;;;;4.50;4.10;;;11.20;99.90;;;;;;5026224;28;20231;-78
2022/12/07 12:05:43;;;;;;;4.18;3.88;;;11.10;99.90;;;;;;5030563;28;20278;-76
2022/12/07 12:08:18;;;;;;;4.18;3.88;;;10.90;99.90;;;;;;5048942;28;20688;-80
2022/12/07 12:10:56;;;;;;;3.72;3.42;;;10.80;99.90;;;;;;5046110;28;20195;-79
2022/12/07 12:13:41;;;;;;;3.70;3.40;;;10.80;99.90;;;;;;5043529;28;20191;-76
2022/12/07 12:16:51;;;;;;;4.00;3.70;;;10.80;99.90;;;;;;5050009;28;20225;-79
2022/12/07 12:19:32;;;;;;;3.38;3.08;;;10.90;99.90;;;;;;5052393;28;20194;-74
2022/12/07 12:22:16;;;;;;;3.58;3.28;;;10.90;99.90;;;;;;5050377;28;20229;-77
2022/12/07 12:24:45;;;;;;;3.67;3.38;;;11.00;99.90;;;;;;5051374;28;20203;-80
2022/12/07 12:27:24;;;;;;;5.18;3.88;;;10.90;99.90;;;;;;5056271;28;20569;-76
2022/12/07 12:29:55;;;;;;;4.03;3.65;;;11.10;99.90;;;;;;5049003;28;20201;-76
2022/12/07 12:32:24;;;;;;;3.90;3.60;;;11.10;99.90;;;;;;5049709;28;20218;-81
2022/12/07 12:35:21;;;;;;;3.85;3.55;;;10.90;99.90;;;;;;5048256;28;20191;-83
2022/12/07 12:37:48;;;;;;;3.47;3.13;;;10.90;99.90;;;;;;5045100;28;20227;-76
2022/12/07 12:40:44;;;;;;;3.95;3.55;;;10.90;99.90;;;;;;5044538;28;20232;-78
2022/12/07 12:43:48;;;;;;;3.70;3.40;;;10.80;99.90;;;;;;5017209;28;20533;-80
2022/12/07 12:46:53;;;;;;;4.53;4.05;;;10.90;99.90;;;;;;5026610;28;20307;-83
2022/12/07 12:49:42;;;;;;;3.65;3.33;;;10.80;99.90;;;;;;5047025;28;20195;-79
2022/12/07 12:52:52;;;;;;;5.10;3.42;;;10.80;99.90;;;;;;5035887;28;20223;-76
2022/12/07 12:55:30;;;;;;;3.92;3.42;;;10.70;99.90;;;;;;5048294;28;20783;-78
2022/12/07 12:58:28;;;;;;;4.55;4.07;;;10.70;99.90;;;;;;5053241;28;20224;-78
2022/12/07 13:01:43;;;;;;;4.85;3.25;;;10.70;99.90;;;;;;5052423;28;20237;-82
2022/12/07 13:04:30;;;;;;;4.80;3.67;;;10.80;99.90;;;;;;5050399;28;20206;-83
2022/12/07 13:06:59;;;;;;;4.68;3.75;;;10.90;99.90;;;;;;5055227;28;20210;-74
2022/12/07 13:09:31;;;;;;;4.40;4.00;;;10.80;99.90;;;;;;5046398;28;20207;-76
2022/12/07 13:12:05;;;;;;;4.65;3.72;;;10.80;99.90;;;;;;5045678;28;20377;-76
2022/12/07 13:14:52;;;;;;;5.03;3.92;;;10.70;99.90;;;;;;5049291;28;20723;-78
2022/12/07 13:17:52;;;;;;;4.00;3.70;;;10.70;99.90;;;;;;5043966;28;20223;-78
2022/12/07 13:20:49;;;;;;;3.70;3.42;;;10.70;99.90;;;;;;5041126;28;20202;-77
2022/12/07 13:23:21;;;;;;;4.35;4.00;;;10.60;99.90;;;;;;5042004;28;20296;-80
2022/12/07 13:26:17;;;;;;;3.70;3.40;;;10.60;99.90;;;;;;5045691;28;20281;-78
2022/12/07 13:28:48;;;;;;;3.78;3.47;;;10.50;99.90;;;;;;5041660;28;20685;-76